createdAt,value
2023-01-31T00:00:26.343Z,100853.31
2023-01-31T00:02:52.671Z,100855.41
2023-01-31T00:05:20.346Z,100856.09
2023-01-31T00:07:47.694Z,100857.56
2023-01-31T00:10:14.024Z,100861.94
2023-01-31T00:12:40.364Z,100849.03
2023-01-31T00:15:06.803Z,100862.00
2023-01-31T00:17:33.195Z,100868.44
2023-01-31T00:19:59.558Z,100872.03
2023-01-31T00:22:25.885Z,100879.25
2023-01-31T00:24:52.234Z,100879.25
2023-01-31T00:27:19.084Z,100881.53
2023-01-31T00:29:46.084Z,100889.53
2023-01-31T00:32:12.423Z,100888.78
2023-01-31T00:34:38.777Z,100901.03
2023-01-31T00:37:05.129Z,100898.03
2023-01-31T00:39:32.403Z,100903.59
2023-01-31T00:41:58.757Z,100909.16
2023-01-31T00:44:25.166Z,100918.53
2023-01-31T00:46:51.532Z,100921.41
2023-01-31T00:49:17.862Z,100923.63
2023-01-31T00:51:44.717Z,100922.16
2023-01-31T00:54:11.582Z,100919.38
2023-01-31T00:56:38.213Z,100937.38
2023-01-31T00:59:08.487Z,100935.88
2023-01-31T01:01:35.249Z,100935.13
2023-01-31T01:04:01.883Z,100946.63
2023-01-31T01:06:32.790Z,100950.91
2023-01-31T01:08:59.960Z,100952.19
2023-01-31T01:11:27.358Z,100958.72
2023-01-31T01:13:53.681Z,100952.19
2023-01-31T01:16:27.579Z,100951.34
2023-01-31T01:18:55.082Z,100963.69
2023-01-31T01:21:22.295Z,100962.97
2023-01-31T01:23:48.652Z,100969.44
2023-01-31T01:26:15.524Z,100975.19
2023-01-31T01:28:41.885Z,100970.22
2023-01-31T01:31:08.728Z,100968.81
2023-01-31T01:33:35.355Z,100976.72
2023-01-31T01:36:02.521Z,100974.47
2023-01-31T01:38:29.246Z,100979.47
2023-01-31T01:40:55.655Z,100980.22
2023-01-31T01:43:22.012Z,100979.47
2023-01-31T01:45:48.957Z,100982.25
2023-01-31T01:48:16.951Z,100966.41
2023-01-31T01:50:47.780Z,100980.03
2023-01-31T01:53:17.088Z,100990.69
2023-01-31T01:55:44.629Z,100992.81
2023-01-31T01:58:12.400Z,101004.97
2023-01-31T02:00:38.793Z,101007.84
2023-01-31T02:03:05.567Z,101002.00
2023-01-31T02:05:39.924Z,101009.13
2023-01-31T02:08:06.297Z,101008.41
2023-01-31T02:10:41.937Z,101006.16
2023-01-31T02:13:08.332Z,101010.44
2023-01-31T02:15:34.670Z,101016.94
2023-01-31T02:18:01.040Z,101019.69
2023-01-31T02:20:27.766Z,101020.44
2023-01-31T02:23:15.693Z,101028.97
2023-01-31T02:25:48.447Z,101028.97
2023-01-31T02:28:27.906Z,101034.72
2023-01-31T02:31:00.216Z,101049.75
2023-01-31T02:33:41.209Z,101046.13
2023-01-31T02:36:31.019Z,101043.25
2023-01-31T02:39:03.145Z,101051.22
2023-01-31T02:41:35.962Z,101053.47
2023-01-31T02:44:32.595Z,101043.44
2023-01-31T02:47:06.111Z,101053.69
2023-01-31T02:49:40.528Z,101048.66
2023-01-31T02:52:31.684Z,101053.78
2023-01-31T02:55:26.916Z,101056.66
2023-01-31T02:57:53.437Z,101059.53
2023-01-31T03:00:20.629Z,101056.66
2023-01-31T03:02:47.357Z,101055.88
2023-01-31T03:05:17.294Z,101054.41
2023-01-31T03:07:44.155Z,101054.41
2023-01-31T03:10:19.870Z,101058.66
2023-01-31T03:12:48.140Z,101056.44
2023-01-31T03:15:26.655Z,101047.72
2023-01-31T03:17:53.239Z,101046.22
2023-01-31T03:20:43.633Z,101050.50
2023-01-31T03:23:14.263Z,101049.75
2023-01-31T03:25:40.746Z,101053.47
2023-01-31T03:28:10.389Z,101056.34
2023-01-31T03:30:40.914Z,101059.97
2023-01-31T03:33:12.719Z,101067.94
2023-01-31T03:35:39.948Z,101065.06
2023-01-31T03:38:20.651Z,101076.56
2023-01-31T03:40:48.071Z,101066.44
2023-01-31T03:43:33.248Z,101085.22
2023-01-31T03:46:01.801Z,101064.97
2023-01-31T03:48:29.041Z,101079.34
2023-01-31T03:50:59.203Z,101085.84
2023-01-31T03:53:27.575Z,101086.69
2023-01-31T03:55:57.340Z,101087.44
2023-01-31T03:58:25.201Z,101088.19
2023-01-31T04:00:51.639Z,101095.41
2023-01-31T04:03:24.481Z,101105.56
2023-01-31T04:05:50.869Z,101099.88
2023-01-31T04:08:19.249Z,101102.75
2023-01-31T04:10:52.968Z,101107.13
2023-01-31T04:13:19.291Z,101102.84
2023-01-31T04:15:45.653Z,101096.38
2023-01-31T04:18:12.077Z,101102.84
2023-01-31T04:20:38.430Z,101101.38
2023-01-31T04:23:04.773Z,101113.63
2023-01-31T04:25:32.759Z,101111.38
2023-01-31T04:27:59.846Z,101110.63
2023-01-31T04:30:26.180Z,101102.00
2023-01-31T04:32:52.499Z,101108.50
2023-01-31T04:35:19.330Z,101104.16
2023-01-31T04:37:45.786Z,101107.13
2023-01-31T04:40:14.156Z,101116.50
2023-01-31T04:42:40.534Z,101128.75
2023-01-31T04:45:07.083Z,101125.88
2023-01-31T04:47:33.411Z,101135.91
2023-01-31T04:49:59.754Z,101135.91
2023-01-31T04:52:26.100Z,101137.94
2023-01-31T04:54:52.453Z,101137.19
2023-01-31T04:57:18.786Z,101141.53
2023-01-31T04:59:45.146Z,101137.19
2023-01-31T05:02:14.218Z,101136.53
2023-01-31T05:04:40.633Z,101144.53
2023-01-31T05:07:06.970Z,101148.88
2023-01-31T05:09:33.296Z,101146.09
2023-01-31T05:11:59.620Z,101134.59
2023-01-31T05:14:25.954Z,101133.88
2023-01-31T05:16:52.283Z,101127.38
2023-01-31T05:19:18.612Z,101131.63
2023-01-31T05:21:58.973Z,101143.13
2023-01-31T05:24:26.531Z,101146.75
2023-01-31T05:26:56.546Z,101148.13
2023-01-31T05:29:22.966Z,101148.13
2023-01-31T05:31:55.950Z,101151.00
2023-01-31T05:34:22.310Z,101156.13
2023-01-31T05:36:48.676Z,101154.63
2023-01-31T05:39:14.982Z,101151.13
2023-01-31T05:41:41.361Z,101161.22
2023-01-31T05:44:07.692Z,101156.88
2023-01-31T05:46:34.034Z,101150.38
2023-01-31T05:49:00.364Z,101143.88
2023-01-31T05:51:26.720Z,101153.16
2023-01-31T05:53:53.360Z,101158.91
2023-01-31T05:56:19.693Z,101160.38
2023-01-31T05:58:50.355Z,101161.88
2023-01-31T06:01:22.023Z,101166.13
2023-01-31T06:03:48.478Z,101167.63
2023-01-31T06:06:14.814Z,101167.63
2023-01-31T06:08:42.076Z,101163.38
2023-01-31T06:11:10.977Z,101166.25
2023-01-31T06:13:37.771Z,101176.28
2023-01-31T06:16:04.231Z,101174.13
2023-01-31T06:18:30.862Z,101177.63
2023-01-31T06:20:57.588Z,101187.03
2023-01-31T06:23:23.928Z,101183.38
2023-01-31T06:25:50.754Z,101200.66
2023-01-31T06:28:17.320Z,101193.41
2023-01-31T06:30:43.752Z,101193.41
2023-01-31T06:33:10.158Z,101186.25
2023-01-31T06:35:36.632Z,101199.16
2023-01-31T06:38:02.963Z,101194.91
2023-01-31T06:40:30.727Z,101195.84
2023-01-31T06:42:57.683Z,101189.34
2023-01-31T06:45:24.021Z,101200.66
2023-01-31T06:47:50.345Z,101206.22
2023-01-31T06:50:16.759Z,101188.28
2023-01-31T06:52:43.151Z,101185.25
2023-01-31T06:55:09.562Z,101192.94
2023-01-31T06:57:35.874Z,101199.06
2023-01-31T07:00:02.289Z,101190.34
2023-01-31T07:02:28.612Z,101202.91
2023-01-31T07:04:55.463Z,101203.84
2023-01-31T07:07:21.837Z,101183.84
2023-01-31T07:09:48.180Z,101173.81
2023-01-31T07:12:14.524Z,101164.56
2023-01-31T07:14:40.851Z,101181.81
2023-01-31T07:17:07.191Z,101186.94
2023-01-31T07:19:33.549Z,101197.03
2023-01-31T07:21:59.890Z,101200.44
2023-01-31T07:24:26.211Z,101198.09
2023-01-31T07:26:53.103Z,101193.06
2023-01-31T07:29:19.459Z,101195.84
2023-01-31T07:31:45.831Z,101183.09
2023-01-31T07:34:12.310Z,101178.50
2023-01-31T07:36:38.647Z,101179.66
2023-01-31T07:39:06.249Z,101182.31
2023-01-31T07:41:32.589Z,101181.78
2023-01-31T07:43:59.406Z,101184.97
2023-01-31T07:46:25.787Z,101176.25
2023-01-31T07:48:52.129Z,101179.00
2023-01-31T07:51:18.857Z,101172.63
2023-01-31T07:53:45.199Z,101173.25
2023-01-31T07:56:21.080Z,101179.13
2023-01-31T07:58:48.546Z,101179.97
2023-01-31T08:01:34.106Z,101179.97
2023-01-31T08:04:10.662Z,101176.88
2023-01-31T08:06:44.891Z,101170.91
2023-01-31T08:09:11.209Z,101175.66
2023-01-31T08:11:37.575Z,101164.44
2023-01-31T08:14:03.898Z,101162.03
2023-01-31T08:16:31.888Z,101159.00
2023-01-31T08:18:58.244Z,101161.22
2023-01-31T08:21:24.580Z,101156.31
2023-01-31T08:23:50.902Z,101157.63
2023-01-31T08:26:18.094Z,101150.00
2023-01-31T08:28:44.483Z,101146.91
2023-01-31T08:31:14.734Z,101141.06
2023-01-31T08:33:41.251Z,101139.03
2023-01-31T08:36:08.146Z,101135.28
2023-01-31T08:38:34.562Z,101139.59
2023-01-31T08:41:00.941Z,101139.69
2023-01-31T08:43:27.266Z,101128.59
2023-01-31T08:45:53.604Z,101139.94
2023-01-31T08:48:19.947Z,101136.69
2023-01-31T08:50:46.324Z,101135.19
2023-01-31T08:53:12.647Z,101127.69
2023-01-31T08:55:38.969Z,101131.03
2023-01-31T08:58:05.860Z,101117.28
2023-01-31T09:00:32.480Z,101134.50
2023-01-31T09:02:59.299Z,101123.03
2023-01-31T09:05:26.079Z,101123.66
2023-01-31T09:07:52.420Z,101125.22
2023-01-31T09:10:18.899Z,101122.25
2023-01-31T09:12:45.238Z,101111.88
2023-01-31T09:15:11.707Z,101115.69
2023-01-31T09:17:39.153Z,101107.06
2023-01-31T09:20:06.777Z,101109.28
2023-01-31T09:22:34.529Z,101113.66
2023-01-31T09:25:01.101Z,101098.59
2023-01-31T09:27:27.645Z,101098.50
2023-01-31T09:29:53.973Z,101097.78
2023-01-31T09:32:21.370Z,101093.50
2023-01-31T09:34:49.089Z,101099.97
2023-01-31T09:37:15.654Z,101094.97
2023-01-31T09:39:42.033Z,101097.19
2023-01-31T09:42:11.208Z,101098.03
2023-01-31T09:44:39.087Z,101095.97
2023-01-31T09:47:08.520Z,101092.38
2023-01-31T09:49:37.339Z,101082.50
2023-01-31T09:52:03.742Z,101085.47
2023-01-31T09:54:34.414Z,101086.97
2023-01-31T09:57:06.828Z,101081.22
2023-01-31T09:59:39.499Z,101078.25
2023-01-31T10:02:15.250Z,101068.09
2023-01-31T10:04:50.640Z,101064.56
2023-01-31T10:07:20.418Z,101060.94
2023-01-31T10:09:48.793Z,101062.34
2023-01-31T10:12:24.287Z,101055.19
2023-01-31T10:14:54.405Z,101049.44
2023-01-31T10:17:32.726Z,101058.16
2023-01-31T10:20:18.747Z,101053.78
2023-01-31T10:22:50.999Z,101052.56
2023-01-31T10:25:17.244Z,101039.00
2023-01-31T10:27:48.289Z,101023.94
2023-01-31T10:30:17.004Z,101020.94
2023-01-31T10:32:45.166Z,101027.47
2023-01-31T10:35:17.587Z,101015.97
2023-01-31T10:37:46.554Z,101014.44
2023-01-31T10:40:16.789Z,101007.22
2023-01-31T10:42:45.474Z,101017.44
2023-01-31T10:45:15.531Z,101005.34
2023-01-31T10:47:51.782Z,100999.56
2023-01-31T10:50:19.377Z,100989.53
2023-01-31T10:52:49.816Z,100980.88
2023-01-31T10:55:23.280Z,100976.84
2023-01-31T10:57:49.621Z,100978.16
2023-01-31T11:00:19.946Z,100969.94
2023-01-31T11:02:46.491Z,100972.72
2023-01-31T11:05:15.486Z,100955.44
2023-01-31T11:07:41.813Z,100954.72
2023-01-31T11:10:21.813Z,100950.44
2023-01-31T11:12:52.919Z,100953.47
2023-01-31T11:15:19.529Z,100945.50
2023-01-31T11:17:46.037Z,100937.13
2023-01-31T11:20:19.954Z,100916.31
2023-01-31T11:22:46.455Z,100924.06
2023-01-31T11:25:18.323Z,100914.19
2023-01-31T11:27:44.689Z,100904.06
2023-01-31T11:30:25.922Z,100895.41
2023-01-31T11:32:52.382Z,100898.13
2023-01-31T11:35:18.645Z,100898.88
2023-01-31T11:38:04.206Z,100881.75
2023-01-31T11:40:31.730Z,100887.59
2023-01-31T11:42:58.838Z,100870.84
2023-01-31T11:45:34.451Z,100864.44
2023-01-31T11:48:08.284Z,100854.38
2023-01-31T11:50:36.480Z,100850.28
2023-01-31T11:53:03.728Z,100843.91
2023-01-31T11:55:37.434Z,100830.16
2023-01-31T11:58:04.704Z,100833.63
2023-01-31T12:00:31.403Z,100832.97
2023-01-31T12:03:08.911Z,100816.41
2023-01-31T12:05:36.758Z,100805.59
2023-01-31T12:08:03.096Z,100797.59
2023-01-31T12:10:33.490Z,100801.38
2023-01-31T12:13:17.780Z,100792.09
2023-01-31T12:16:01.176Z,100789.03
2023-01-31T12:18:33.616Z,100767.47
2023-01-31T12:21:09.083Z,100771.75
2023-01-31T12:23:39.516Z,100770.44
2023-01-31T12:26:08.395Z,100764.31
2023-01-31T12:28:37.820Z,100768.00
2023-01-31T12:31:11.188Z,100749.31
2023-01-31T12:33:56.432Z,100745.19
2023-01-31T12:36:32.455Z,100733.81
2023-01-31T12:39:10.994Z,100744.72
2023-01-31T12:42:00.639Z,100729.56
2023-01-31T12:44:37.166Z,100725.97
2023-01-31T12:47:18.720Z,100721.94
2023-01-31T12:49:58.240Z,100720.47
2023-01-31T12:52:27.606Z,100703.00
2023-01-31T12:54:53.883Z,100715.13
2023-01-31T12:57:32.268Z,100697.16
2023-01-31T13:00:17.417Z,100705.22
2023-01-31T13:03:02.521Z,100693.09
2023-01-31T13:05:30.892Z,100697.53
2023-01-31T13:08:07.881Z,100689.56
2023-01-31T13:10:40.744Z,100698.13
2023-01-31T13:13:10.288Z,100690.13
2023-01-31T13:15:41.064Z,100685.84
2023-01-31T13:18:07.508Z,100690.13
2023-01-31T13:20:41.307Z,100690.31
2023-01-31T13:23:12.299Z,100669.50
2023-01-31T13:25:46.791Z,100671.66
2023-01-31T13:28:15.236Z,100679.66
2023-01-31T13:30:45.626Z,100671.81
2023-01-31T13:33:17.354Z,100668.13
2023-01-31T13:35:43.729Z,100670.34
2023-01-31T13:38:13.116Z,100675.34
2023-01-31T13:40:43.440Z,100671.66
2023-01-31T13:43:13.309Z,100674.53
2023-01-31T13:45:43.135Z,100663.09
2023-01-31T13:48:10.735Z,100671.88
2023-01-31T13:50:38.405Z,100673.88
2023-01-31T13:53:05.258Z,100671.81
2023-01-31T13:55:38.338Z,100663.22
2023-01-31T13:58:05.544Z,100661.75
2023-01-31T14:00:37.607Z,100671.97
2023-01-31T14:03:08.174Z,100658.34
2023-01-31T14:05:49.901Z,100662.69
2023-01-31T14:08:28.540Z,100669.16
2023-01-31T14:10:55.173Z,100653.97
2023-01-31T14:13:26.656Z,100656.13
2023-01-31T14:15:53.203Z,100650.34
2023-01-31T14:18:38.390Z,100654.78
2023-01-31T14:21:23.707Z,100648.28
2023-01-31T14:23:50.354Z,100636.16
2023-01-31T14:26:32.828Z,100636.16
2023-01-31T14:28:59.315Z,100645.38
2023-01-31T14:31:26.163Z,100625.88
2023-01-31T14:33:54.143Z,100627.28
2023-01-31T14:36:32.883Z,100624.31
2023-01-31T14:39:16.618Z,100624.47
2023-01-31T14:42:15.405Z,100625.19
2023-01-31T14:45:00.319Z,100621.84
2023-01-31T14:47:33.513Z,100626.41
2023-01-31T14:50:19.165Z,100626.25
2023-01-31T14:52:50.396Z,100626.09
2023-01-31T14:55:22.572Z,100624.16
2023-01-31T14:57:49.999Z,100609.75
2023-01-31T15:00:19.057Z,100607.13
2023-01-31T15:03:04.577Z,100609.69
2023-01-31T15:05:30.922Z,100613.25
2023-01-31T15:08:09.080Z,100613.84
2023-01-31T15:10:54.648Z,100605.56
2023-01-31T15:13:39.523Z,100605.75
2023-01-31T15:16:10.528Z,100602.06
2023-01-31T15:18:36.912Z,100592.41
2023-01-31T15:21:04.487Z,100604.00
2023-01-31T15:23:31.798Z,100592.84
2023-01-31T15:25:58.511Z,100589.44
2023-01-31T15:28:29.088Z,100587.97
2023-01-31T15:30:56.897Z,100591.09
2023-01-31T15:33:29.062Z,100596.25
2023-01-31T15:35:55.378Z,100591.13
2023-01-31T15:38:34.056Z,100605.50
2023-01-31T15:41:07.384Z,100600.84
2023-01-31T15:43:38.661Z,100595.97
2023-01-31T15:46:23.580Z,100595.22
2023-01-31T15:48:49.954Z,100588.69
2023-01-31T15:51:16.285Z,100586.63
2023-01-31T15:53:42.631Z,100575.09
2023-01-31T15:56:14.949Z,100567.28
2023-01-31T15:58:42.976Z,100573.06
2023-01-31T16:01:12.582Z,100576.22
2023-01-31T16:03:40.871Z,100572.75
2023-01-31T16:06:07.335Z,100578.59
2023-01-31T16:08:34.538Z,100570.09
2023-01-31T16:11:07.929Z,100581.75
2023-01-31T16:13:34.369Z,100585.00
2023-01-31T16:16:00.706Z,100580.50
2023-01-31T16:18:27.028Z,100580.59
2023-01-31T16:20:54.065Z,100573.13
2023-01-31T16:23:30.531Z,100589.31
2023-01-31T16:26:01.410Z,100587.53
2023-01-31T16:28:28.625Z,100594.78
2023-01-31T16:30:55.033Z,100600.16
2023-01-31T16:33:22.465Z,100587.53
2023-01-31T16:36:11.889Z,100599.88
2023-01-31T16:38:40.451Z,100591.81
2023-01-31T16:41:10.484Z,100591.91
2023-01-31T16:43:36.846Z,100597.00
2023-01-31T16:46:08.087Z,100599.00
2023-01-31T16:48:35.017Z,100601.88
2023-01-31T16:51:21.235Z,100580.13
2023-01-31T16:54:07.686Z,100587.31
2023-01-31T16:56:34.025Z,100578.06
2023-01-31T16:59:00.367Z,100560.34
2023-01-31T17:01:27.822Z,100573.78
2023-01-31T17:04:01.276Z,100573.59
2023-01-31T17:06:27.614Z,100572.28
2023-01-31T17:08:53.947Z,100560.13
2023-01-31T17:11:40.916Z,100560.03
2023-01-31T17:14:06.566Z,100560.69
2023-01-31T17:16:32.897Z,100558.56
2023-01-31T17:18:59.235Z,100562.84
2023-01-31T17:21:25.646Z,100555.47
2023-01-31T17:23:51.984Z,100552.81
2023-01-31T17:26:18.889Z,100544.97
2023-01-31T17:28:52.730Z,100553.09
2023-01-31T17:31:23.264Z,100550.13
2023-01-31T17:33:50.015Z,100525.63
2023-01-31T17:36:16.574Z,100523.53
2023-01-31T17:38:43.028Z,100526.19
2023-01-31T17:41:10.953Z,100527.22
2023-01-31T17:43:37.263Z,100524.41
2023-01-31T17:46:03.625Z,100519.03
2023-01-31T17:48:29.981Z,100527.72
2023-01-31T17:50:56.309Z,100513.84
2023-01-31T17:53:22.632Z,100497.44
2023-01-31T17:55:48.966Z,100484.47
2023-01-31T17:58:15.321Z,100477.25
2023-01-31T18:00:41.654Z,100471.63
2023-01-31T18:03:09.275Z,100463.03
2023-01-31T18:05:39.234Z,100472.03
2023-01-31T18:08:05.828Z,100472.81
2023-01-31T18:10:32.209Z,100481.81
2023-01-31T18:12:58.563Z,100478.44
2023-01-31T18:15:24.901Z,100477.66
2023-01-31T18:17:51.234Z,100473.09
2023-01-31T18:20:19.202Z,100481.44
2023-01-31T18:22:45.845Z,100482.09
2023-01-31T18:25:12.229Z,100478.66
2023-01-31T18:27:38.608Z,100469.28
2023-01-31T18:30:05.638Z,100466.72
2023-01-31T18:32:35.001Z,100460.31
2023-01-31T18:35:01.377Z,100454.56
2023-01-31T18:37:27.710Z,100445.84
2023-01-31T18:39:54.151Z,100446.56
2023-01-31T18:42:20.592Z,100450.13
2023-01-31T18:44:47.113Z,100442.16
2023-01-31T18:47:16.508Z,100457.25
2023-01-31T18:49:42.862Z,100439.28
2023-01-31T18:52:09.224Z,100447.16
2023-01-31T18:54:37.353Z,100455.31
2023-01-31T18:57:03.730Z,100442.34
2023-01-31T18:59:30.075Z,100446.72
2023-01-31T19:01:56.434Z,100453.38
2023-01-31T19:04:22.826Z,100451.91
2023-01-31T19:06:51.436Z,100463.94
2023-01-31T19:09:17.769Z,100455.81
2023-01-31T19:11:45.104Z,100448.53
2023-01-31T19:14:12.054Z,100460.78
2023-01-31T19:16:40.163Z,100452.09
2023-01-31T19:19:06.712Z,100434.72
2023-01-31T19:21:33.423Z,100440.47
2023-01-31T19:24:00.643Z,100445.97
2023-01-31T19:26:27.002Z,100436.72
2023-01-31T19:28:53.384Z,100441.72
2023-01-31T19:31:20.559Z,100438.13
2023-01-31T19:33:50.148Z,100452.25
2023-01-31T19:36:17.943Z,100481.25
2023-01-31T19:38:44.313Z,100497.91
2023-01-31T19:41:14.426Z,100506.63
2023-01-31T19:43:40.834Z,100496.63
2023-01-31T19:46:07.262Z,100483.78
2023-01-31T19:48:33.629Z,100496.78
2023-01-31T19:51:05.044Z,100502.53
2023-01-31T19:53:31.393Z,100508.38
2023-01-31T19:55:57.770Z,100511.25
2023-01-31T19:58:30.788Z,100512.75
2023-01-31T20:00:57.914Z,100527.22
2023-01-31T20:03:24.345Z,100506.25
2023-01-31T20:05:50.711Z,100508.38
2023-01-31T20:08:17.053Z,100496.78
2023-01-31T20:10:43.389Z,100506.81
2023-01-31T20:13:09.739Z,100496.06
2023-01-31T20:15:36.113Z,100493.91
2023-01-31T20:18:02.460Z,100512.66
2023-01-31T20:20:28.824Z,100513.41
2023-01-31T20:22:55.188Z,100529.94
2023-01-31T20:25:21.516Z,100522.75
2023-01-31T20:27:47.895Z,100525.06
2023-01-31T20:30:17.411Z,100540.84
2023-01-31T20:32:43.847Z,100551.69
2023-01-31T20:35:10.177Z,100552.81
2023-01-31T20:37:36.509Z,100548.81
2023-01-31T20:40:02.874Z,100558.66
2023-01-31T20:42:31.483Z,100558.56
2023-01-31T20:44:57.953Z,100564.44
2023-01-31T20:47:24.299Z,100555.81
2023-01-31T20:49:50.647Z,100553.03
2023-01-31T20:52:17.038Z,100555.91
2023-01-31T20:54:43.370Z,100563.78
2023-01-31T20:57:09.704Z,100577.41
2023-01-31T20:59:36.051Z,100568.06
2023-01-31T21:02:02.452Z,100564.34
2023-01-31T21:04:28.834Z,100566.59
2023-01-31T21:06:55.168Z,100577.50
2023-01-31T21:09:23.234Z,100576.03
2023-01-31T21:11:49.694Z,100573.97
2023-01-31T21:14:16.074Z,100582.59
2023-01-31T21:16:42.436Z,100585.50
2023-01-31T21:19:08.863Z,100596.41
2023-01-31T21:21:35.210Z,100585.06
2023-01-31T21:24:01.556Z,100588.63
2023-01-31T21:26:28.001Z,100587.84
2023-01-31T21:28:54.362Z,100595.03
2023-01-31T21:31:20.816Z,100602.09
2023-01-31T21:33:47.850Z,100584.75
2023-01-31T21:36:14.896Z,100568.69
2023-01-31T21:38:41.256Z,100571.66
2023-01-31T21:41:26.549Z,100571.66
2023-01-31T21:43:52.936Z,100583.84
2023-01-31T21:46:19.422Z,100591.59
2023-01-31T21:48:45.784Z,100623.19
2023-01-31T21:51:12.921Z,100629.66
2023-01-31T21:53:39.379Z,100621.69
2023-01-31T21:56:06.711Z,100615.94
2023-01-31T21:58:33.195Z,100613.06
2023-01-31T22:01:06.071Z,100615.19
2023-01-31T22:03:32.439Z,100600.09
2023-01-31T22:06:02.615Z,100601.47
2023-01-31T22:08:29.045Z,100618.63
2023-01-31T22:10:58.338Z,100621.50
2023-01-31T22:13:25.314Z,100618.63
2023-01-31T22:15:51.649Z,100607.81
2023-01-31T22:18:17.988Z,100604.84
2023-01-31T22:20:45.240Z,100604.84
2023-01-31T22:23:11.563Z,100598.34
2023-01-31T22:25:37.904Z,100598.34
2023-01-31T22:28:04.225Z,100596.13
2023-01-31T22:30:30.814Z,100606.88
2023-01-31T22:32:57.294Z,100606.13
2023-01-31T22:35:26.381Z,100598.91
2023-01-31T22:37:52.827Z,100599.56
2023-01-31T22:40:19.526Z,100604.56
2023-01-31T22:42:46.110Z,100609.59
2023-01-31T22:45:12.434Z,100609.50
2023-01-31T22:47:38.858Z,100597.25
2023-01-31T22:50:05.315Z,100606.63
2023-01-31T22:52:31.638Z,100596.53
2023-01-31T22:54:57.962Z,100606.53
2023-01-31T22:57:24.298Z,100611.47
2023-01-31T22:59:50.647Z,100612.88
2023-01-31T23:02:17.096Z,100603.47
2023-01-31T23:04:43.398Z,100617.13
2023-01-31T23:07:10.609Z,100610.72
2023-01-31T23:09:37.221Z,100610.63
2023-01-31T23:12:03.562Z,100616.41
2023-01-31T23:14:29.898Z,100622.13
2023-01-31T23:17:15.037Z,100614.16
2023-01-31T23:19:41.352Z,100613.44
2023-01-31T23:22:07.760Z,100594.78
2023-01-31T23:24:34.643Z,100602.56
2023-01-31T23:27:00.991Z,100604.81
2023-01-31T23:29:27.326Z,100588.97
2023-01-31T23:31:53.667Z,100608.22
2023-01-31T23:34:20.037Z,100602.47
2023-01-31T23:36:46.367Z,100596.00
2023-01-31T23:39:12.680Z,100588.78
2023-01-31T23:41:39.024Z,100594.53
2023-01-31T23:44:05.726Z,100581.53
2023-01-31T23:46:32.256Z,100587.28
2023-01-31T23:48:58.630Z,100578.56
2023-01-31T23:51:26.586Z,100582.22
2023-01-31T23:53:52.931Z,100584.31
2023-01-31T23:56:19.254Z,100585.72
2023-01-31T23:58:45.572Z,100593.63
